Agios Georgios I — SX9857 — position and weather

sailwx.info

Track history (hours):
 
Tides and Currents Weather Stations Pressure Air Temp Water Temp Dewpoint Dewpoint Depression Visibility Wind Speed Wind Dir Waves Ship Positions

Agios Georgios I

Last reported at 2014-Nov-23 08:30 UTC. Time now 2014-Nov-23 08:49 UTC.
Position N 37°26' E 024°56'.

Length 59 m; draft 5 m.

Type: Ship (hazmat cat B). MMSI: 239912000.

Date/timePositionNaut miles runAvg speedWind from/ knotsBaromVisibWave heightAir tempDewpointWater temp
2014-Nov-23 08:30N 37°26' E 024°56'0 0.0
2014-Nov-23 07:33N 37°26' E 024°56'0 0.0
2014-Nov-23 06:32N 37°26' E 024°56'0 0.0
2014-Nov-23 05:26N 37°26' E 024°56'0 0.0
2014-Nov-23 04:28N 37°26' E 024°56'0 0.0
2014-Nov-23 03:33N 37°26' E 024°56'0 0.0
2014-Nov-23 02:32N 37°26' E 024°56'0 0.0
2014-Nov-23 01:32N 37°26' E 024°56'0 0.0
2014-Nov-23 00:33N 37°26' E 024°56'4 4.2
2014-Nov-22 23:32N 37°30' E 024°57'8 8.0
2014-Nov-22 22:33N 37°32' E 024°47'9 8.4
2014-Nov-22 21:32N 37°32' E 024°36'8 8.3
2014-Nov-22 20:33N 37°31' E 024°26'9 8.4
2014-Nov-22 19:33N 37°30' E 024°15'25 8.2
2014-Nov-22 16:31N 37°38' E 023°46'8 8.2
2014-Nov-22 15:33N 37°44' E 023°40'9 8.7
2014-Nov-22 14:33N 37°53' E 023°36'5 4.9
2014-Nov-22 13:33N 37°57' E 023°35'0 0.0
2014-Nov-22 12:33N 37°57' E 023°35'0 0.0
2014-Nov-22 11:33N 37°57' E 023°35'0 0.0
2014-Nov-22 10:33N 37°57' E 023°35'0 0.0
2014-Nov-22 09:33N 37°57' E 023°35'0 0.0
2014-Nov-22 08:33N 37°57' E 023°35'0 0.0
2014-Nov-22 07:33N 37°57' E 023°35'0 0.0
2014-Nov-22 06:33N 37°57' E 023°35'0 0.0
2014-Nov-22 05:33N 37°57' E 023°35'0 0.0
2014-Nov-22 04:33N 37°57' E 023°35'0 0.0
2014-Nov-22 03:33N 37°57' E 023°35'0 0.0
2014-Nov-22 02:33N 37°57' E 023°35'0 0.0
2014-Nov-22 01:33N 37°57' E 023°35'2 1.8
2014-Nov-22 00:33N 37°56' E 023°35'8 8.2
2014-Nov-21 23:33N 37°48' E 023°40'8 7.9
2014-Nov-21 22:32N 37°41' E 023°45'9 7.7
2014-Nov-21 21:23N 37°38' E 023°56'  
2014-Nov-19 00:33N 37°57' E 025°51'10 9.8
2014-Nov-18 23:32N 37°49' E 025°43'10 9.8
2014-Nov-18 22:33N 37°43' E 025°34'10 9.7
2014-Nov-18 21:33N 37°37' E 025°25'10 9.9
2014-Nov-18 20:33N 37°29' E 025°18'2 1.6
2014-Nov-18 19:33N 37°28' E 025°19'0 0.0
2014-Nov-18 18:33N 37°28' E 025°19'0 0.0
2014-Nov-18 17:33N 37°28' E 025°19'3 3.5
2014-Nov-18 16:33N 37°27' E 025°15'10 9.7
2014-Nov-18 15:33N 37°27' E 025°03'5 5.3
2014-Nov-18 14:32N 37°26' E 024°56'0 0.0
2014-Nov-18 13:31N 37°26' E 024°56'0 0.0
2014-Nov-18 12:26N 37°26' E 024°56'0 0.0
2014-Nov-18 11:31N 37°26' E 024°56'0 0.0
2014-Nov-18 10:33N 37°26' E 024°56'0 0.0
2014-Nov-18 09:30N 37°26' E 024°56'0 0.0
2014-Nov-18 08:31N 37°26' E 024°56'0 0.0
2014-Nov-18 07:32N 37°26' E 024°56'0 0.0
2014-Nov-18 06:31N 37°26' E 024°56'4 4.4
2014-Nov-18 05:33N 37°24' E 025°01'9 9.5
2014-Nov-18 04:33N 37°17' E 025°09'9 9.2
2014-Nov-18 03:33N 37°10' E 025°17'6 5.6
2014-Nov-18 02:33N 37°06' E 025°22'0 0.0
2014-Nov-18 01:33N 37°06' E 025°22'0 0.0
2014-Nov-18 00:33N 37°06' E 025°22'0 0.0
2014-Nov-17 23:33N 37°06' E 025°22'0 0.0
2014-Nov-17 22:33N 37°06' E 025°22'0 0.0
2014-Nov-17 21:33N 37°06' E 025°22'0 0.5
2014-Nov-17 20:33N 37°06' E 025°22'0 0.5
2014-Nov-17 19:33N 37°06' E 025°22'0 0.0
2014-Nov-17 18:33N 37°06' E 025°22'0 0.0
2014-Nov-17 17:33N 37°06' E 025°22'1 0.6
2014-Nov-17 16:33N 37°06' E 025°22'1 0.6
2014-Nov-17 15:33N 37°06' E 025°22'5 5.0
2014-Nov-17 14:33N 37°10' E 025°18'9 9.0
2014-Nov-17 13:32N 37°06' E 025°07'2 0.7
2014-Nov-17 11:08N 37°05' E 025°09'0 0.0
2014-Nov-17 10:26N 37°05' E 025°09'0 0.0
2014-Nov-17 09:26N 37°05' E 025°09'0 0.0
2014-Nov-17 07:12N 37°05' E 025°09'0 0.0
2014-Nov-17 06:31N 37°05' E 025°09'0 0.2
2014-Nov-17 04:24N 37°05' E 025°09'0 0.0
2014-Nov-17 03:25N 37°05' E 025°09'0 0.0
2014-Nov-17 02:25N 37°05' E 025°09'0 0.0
2014-Nov-17 01:30N 37°05' E 025°08'0 0.0
2014-Nov-17 00:33N 37°05' E 025°08'0 0.0
2014-Nov-16 23:22N 37°05' E 025°09'0 0.0
2014-Nov-16 22:32N 37°05' E 025°08'0 0.0
2014-Nov-16 21:29N 37°05' E 025°08'0 0.0
2014-Nov-16 20:32N 37°05' E 025°09'0 0.0
2014-Nov-16 19:33N 37°05' E 025°08'0 0.0
2014-Nov-16 18:23N 37°05' E 025°09'0 0.4
2014-Nov-16 17:26N 37°05' E 025°09'0 0.1
2014-Nov-16 15:08N 37°05' E 025°09'4 7.3
2014-Nov-16 14:33N 37°09' E 025°07'8 8.2
2014-Nov-16 13:33N 37°17' E 025°07'8 8.0
2014-Nov-16 12:33N 37°25' E 025°08'7 7.0
2014-Nov-16 11:33N 37°32' E 025°09'0 0.0
2014-Nov-16 10:33N 37°32' E 025°09'0 0.0
2014-Nov-16 09:33N 37°32' E 025°09'0 0.0
2014-Nov-16 08:33N 37°32' E 025°09'2 2.1
2014-Nov-16 07:33N 37°32' E 025°07'8 8.3
2014-Nov-16 06:33N 37°33' E 024°56'8 7.9
2014-Nov-16 05:33N 37°32' E 024°46'8 7.9
2014-Nov-16 04:33N 37°32' E 024°37'8 7.7
2014-Nov-16 03:33N 37°31' E 024°27'8 7.6
2014-Nov-16 02:33N 37°30' E 024°17'8 8.2
2014-Nov-16 01:33N 37°32' E 024°07'17 8.5
2014-Nov-15 23:33N 37°38' E 023°47'8 8.0
2014-Nov-15 22:33N 37°44' E 023°40'9 8.7
2014-Nov-15 21:33N 37°52' E 023°36'5 5.3
2014-Nov-15 20:33N 37°57' E 023°35'0 0.0
2014-Nov-15 19:33N 37°57' E 023°35'0 0.0
2014-Nov-15 18:33N 37°57' E 023°35'0 0.0
2014-Nov-15 17:33N 37°57' E 023°35'0 0.0
2014-Nov-15 16:33N 37°57' E 023°35'0 0.0
2014-Nov-15 15:33N 37°57' E 023°35'0 0.0
2014-Nov-15 14:33N 37°57' E 023°35'0 0.0
2014-Nov-15 13:33N 37°57' E 023°35'0 0.0
2014-Nov-15 12:33N 37°57' E 023°35'0 0.4
2014-Nov-15 11:33N 37°57' E 023°34'0 0.0
2014-Nov-15 10:33N 37°57' E 023°34'0 0.0
2014-Nov-15 09:33N 37°57' E 023°34'0 0.0
2014-Nov-15 08:33N 37°57' E 023°34'0 0.0
2014-Nov-15 07:33N 37°57' E 023°34'4 4.3
2014-Nov-15 06:33N 37°53' E 023°36'8 8.2
2014-Nov-15 05:33N 37°46' E 023°42'8 8.3
2014-Nov-15 04:33N 37°39' E 023°48'25 8.3
2014-Nov-15 01:32N 37°30' E 024°17'9 9.3
2014-Nov-15 00:33N 37°30' E 024°29'9 8.7
2014-Nov-14 23:33N 37°31' E 024°40'9 8.7
2014-Nov-14 22:33N 37°31' E 024°51'9 8.6
2014-Nov-14 21:33N 37°31' E 025°02'9 8.9
2014-Nov-14 20:33N 37°29' E 025°12'6 5.8
2014-Nov-14 19:33N 37°28' E 025°20'0 0.0
2014-Nov-14 18:33N 37°28' E 025°20'0 0.0
2014-Nov-14 17:33N 37°28' E 025°20'0 0.0
2014-Nov-14 16:33N 37°28' E 025°20'7 6.5
2014-Nov-14 15:33N 37°27' E 025°11'9 9.1
2014-Nov-14 14:33N 37°26' E 024°60'3 1.4
2014-Nov-14 12:32N 37°26' E 024°56'0 0.0
2014-Nov-14 11:27N 37°26' E 024°56'0 0.0
2014-Nov-14 10:28N 37°26' E 024°56'0 0.0
2014-Nov-14 09:31N 37°26' E 024°56'0 0.0
2014-Nov-14 08:29N 37°26' E 024°56'0 0.0
2014-Nov-14 07:32N 37°26' E 024°56'0 0.0
2014-Nov-14 06:32N 37°26' E 024°56'4 4.0
2014-Nov-14 05:33N 37°27' E 025°01'8 8.5
2014-Nov-14 04:33N 37°29' E 025°11'9 8.6
2014-Nov-14 03:33N 37°32' E 025°22'9 8.8
2014-Nov-14 02:33N 37°35' E 025°32'9 9.0
2014-Nov-14 01:33N 37°38' E 025°43'8 8.4
2014-Nov-14 00:33N 37°40' E 025°53'10 9.0
2014-Nov-13 23:28N 37°42' E 026°05'18 9.0
2014-Nov-13 21:27N 37°46' E 026°27'  
Track history (hours):
 
Tides and Currents Weather Stations Pressure Air Temp Water Temp Dewpoint Dewpoint Depression Visibility Wind Speed Wind Dir Waves Ship Positions

Agios Georgios I

Last reported at 2014-Nov-23 08:30 UTC. Time now 2014-Nov-23 08:49 UTC.
Position N 37°26' E 024°56'.

Length 59 m; draft 5 m.

Type: Ship (hazmat cat B). MMSI: 239912000.

Date/timePositionNaut miles runAvg speedWind from/ knotsBaromVisibWave heightAir tempDewpointWater temp
2014-Nov-23 08:30N 37°26' E 024°56'0 0.0
2014-Nov-23 07:33N 37°26' E 024°56'0 0.0
2014-Nov-23 06:32N 37°26' E 024°56'0 0.0
2014-Nov-23 05:26N 37°26' E 024°56'0 0.0
2014-Nov-23 04:28N 37°26' E 024°56'0 0.0
2014-Nov-23 03:33N 37°26' E 024°56'0 0.0
2014-Nov-23 02:32N 37°26' E 024°56'0 0.0
2014-Nov-23 01:32N 37°26' E 024°56'0 0.0
2014-Nov-23 00:33N 37°26' E 024°56'4 4.2
2014-Nov-22 23:32N 37°30' E 024°57'8 8.0
2014-Nov-22 22:33N 37°32' E 024°47'9 8.4
2014-Nov-22 21:32N 37°32' E 024°36'8 8.3
2014-Nov-22 20:33N 37°31' E 024°26'9 8.4
2014-Nov-22 19:33N 37°30' E 024°15'25 8.2
2014-Nov-22 16:31N 37°38' E 023°46'8 8.2
2014-Nov-22 15:33N 37°44' E 023°40'9 8.7
2014-Nov-22 14:33N 37°53' E 023°36'5 4.9
2014-Nov-22 13:33N 37°57' E 023°35'0 0.0
2014-Nov-22 12:33N 37°57' E 023°35'0 0.0
2014-Nov-22 11:33N 37°57' E 023°35'0 0.0
2014-Nov-22 10:33N 37°57' E 023°35'0 0.0
2014-Nov-22 09:33N 37°57' E 023°35'0 0.0
2014-Nov-22 08:33N 37°57' E 023°35'0 0.0
2014-Nov-22 07:33N 37°57' E 023°35'0 0.0
2014-Nov-22 06:33N 37°57' E 023°35'0 0.0
2014-Nov-22 05:33N 37°57' E 023°35'0 0.0
2014-Nov-22 04:33N 37°57' E 023°35'0 0.0
2014-Nov-22 03:33N 37°57' E 023°35'0 0.0
2014-Nov-22 02:33N 37°57' E 023°35'0 0.0
2014-Nov-22 01:33N 37°57' E 023°35'2 1.8
2014-Nov-22 00:33N 37°56' E 023°35'8 8.2
2014-Nov-21 23:33N 37°48' E 023°40'8 7.9
2014-Nov-21 22:32N 37°41' E 023°45'9 7.7
2014-Nov-21 21:23N 37°38' E 023°56'  
2014-Nov-19 00:33N 37°57' E 025°51'10 9.8
2014-Nov-18 23:32N 37°49' E 025°43'10 9.8
2014-Nov-18 22:33N 37°43' E 025°34'10 9.7
2014-Nov-18 21:33N 37°37' E 025°25'10 9.9
2014-Nov-18 20:33N 37°29' E 025°18'2 1.6
2014-Nov-18 19:33N 37°28' E 025°19'0 0.0
2014-Nov-18 18:33N 37°28' E 025°19'0 0.0
2014-Nov-18 17:33N 37°28' E 025°19'3 3.5
2014-Nov-18 16:33N 37°27' E 025°15'10 9.7
2014-Nov-18 15:33N 37°27' E 025°03'5 5.3
2014-Nov-18 14:32N 37°26' E 024°56'0 0.0
2014-Nov-18 13:31N 37°26' E 024°56'0 0.0
2014-Nov-18 12:26N 37°26' E 024°56'0 0.0
2014-Nov-18 11:31N 37°26' E 024°56'0 0.0
2014-Nov-18 10:33N 37°26' E 024°56'0 0.0
2014-Nov-18 09:30N 37°26' E 024°56'0 0.0
2014-Nov-18 08:31N 37°26' E 024°56'0 0.0
2014-Nov-18 07:32N 37°26' E 024°56'0 0.0
2014-Nov-18 06:31N 37°26' E 024°56'4 4.4
2014-Nov-18 05:33N 37°24' E 025°01'9 9.5
2014-Nov-18 04:33N 37°17' E 025°09'9 9.2
2014-Nov-18 03:33N 37°10' E 025°17'6 5.6
2014-Nov-18 02:33N 37°06' E 025°22'0 0.0
2014-Nov-18 01:33N 37°06' E 025°22'0 0.0
2014-Nov-18 00:33N 37°06' E 025°22'0 0.0
2014-Nov-17 23:33N 37°06' E 025°22'0 0.0
2014-Nov-17 22:33N 37°06' E 025°22'0 0.0
2014-Nov-17 21:33N 37°06' E 025°22'0 0.5
2014-Nov-17 20:33N 37°06' E 025°22'0 0.5
2014-Nov-17 19:33N 37°06' E 025°22'0 0.0
2014-Nov-17 18:33N 37°06' E 025°22'0 0.0
2014-Nov-17 17:33N 37°06' E 025°22'1 0.6
2014-Nov-17 16:33N 37°06' E 025°22'1 0.6
2014-Nov-17 15:33N 37°06' E 025°22'5 5.0
2014-Nov-17 14:33N 37°10' E 025°18'9 9.0
2014-Nov-17 13:32N 37°06' E 025°07'2 0.7
2014-Nov-17 11:08N 37°05' E 025°09'0 0.0
2014-Nov-17 10:26N 37°05' E 025°09'0 0.0
2014-Nov-17 09:26N 37°05' E 025°09'0 0.0
2014-Nov-17 07:12N 37°05' E 025°09'0 0.0
2014-Nov-17 06:31N 37°05' E 025°09'0 0.2
2014-Nov-17 04:24N 37°05' E 025°09'0 0.0
2014-Nov-17 03:25N 37°05' E 025°09'0 0.0
2014-Nov-17 02:25N 37°05' E 025°09'0 0.0
2014-Nov-17 01:30N 37°05' E 025°08'0 0.0
2014-Nov-17 00:33N 37°05' E 025°08'0 0.0
2014-Nov-16 23:22N 37°05' E 025°09'0 0.0
2014-Nov-16 22:32N 37°05' E 025°08'0 0.0
2014-Nov-16 21:29N 37°05' E 025°08'0 0.0
2014-Nov-16 20:32N 37°05' E 025°09'0 0.0
2014-Nov-16 19:33N 37°05' E 025°08'0 0.0
2014-Nov-16 18:23N 37°05' E 025°09'0 0.4
2014-Nov-16 17:26N 37°05' E 025°09'0 0.1
2014-Nov-16 15:08N 37°05' E 025°09'4 7.3
2014-Nov-16 14:33N 37°09' E 025°07'8 8.2
2014-Nov-16 13:33N 37°17' E 025°07'8 8.0
2014-Nov-16 12:33N 37°25' E 025°08'7 7.0
2014-Nov-16 11:33N 37°32' E 025°09'0 0.0
2014-Nov-16 10:33N 37°32' E 025°09'0 0.0
2014-Nov-16 09:33N 37°32' E 025°09'0 0.0
2014-Nov-16 08:33N 37°32' E 025°09'2 2.1
2014-Nov-16 07:33N 37°32' E 025°07'8 8.3
2014-Nov-16 06:33N 37°33' E 024°56'8 7.9
2014-Nov-16 05:33N 37°32' E 024°46'8 7.9
2014-Nov-16 04:33N 37°32' E 024°37'8 7.7
2014-Nov-16 03:33N 37°31' E 024°27'8 7.6
2014-Nov-16 02:33N 37°30' E 024°17'8 8.2
2014-Nov-16 01:33N 37°32' E 024°07'17 8.5
2014-Nov-15 23:33N 37°38' E 023°47'8 8.0
2014-Nov-15 22:33N 37°44' E 023°40'9 8.7
2014-Nov-15 21:33N 37°52' E 023°36'5 5.3
2014-Nov-15 20:33N 37°57' E 023°35'0 0.0
2014-Nov-15 19:33N 37°57' E 023°35'0 0.0
2014-Nov-15 18:33N 37°57' E 023°35'0 0.0
2014-Nov-15 17:33N 37°57' E 023°35'0 0.0
2014-Nov-15 16:33N 37°57' E 023°35'0 0.0
2014-Nov-15 15:33N 37°57' E 023°35'0 0.0
2014-Nov-15 14:33N 37°57' E 023°35'0 0.0
2014-Nov-15 13:33N 37°57' E 023°35'0 0.0
2014-Nov-15 12:33N 37°57' E 023°35'0 0.4
2014-Nov-15 11:33N 37°57' E 023°34'0 0.0
2014-Nov-15 10:33N 37°57' E 023°34'0 0.0
2014-Nov-15 09:33N 37°57' E 023°34'0 0.0
2014-Nov-15 08:33N 37°57' E 023°34'0 0.0
2014-Nov-15 07:33N 37°57' E 023°34'4 4.3
2014-Nov-15 06:33N 37°53' E 023°36'8 8.2
2014-Nov-15 05:33N 37°46' E 023°42'8 8.3
2014-Nov-15 04:33N 37°39' E 023°48'25 8.3
2014-Nov-15 01:32N 37°30' E 024°17'9 9.3
2014-Nov-15 00:33N 37°30' E 024°29'9 8.7
2014-Nov-14 23:33N 37°31' E 024°40'9 8.7
2014-Nov-14 22:33N 37°31' E 024°51'9 8.6
2014-Nov-14 21:33N 37°31' E 025°02'9 8.9
2014-Nov-14 20:33N 37°29' E 025°12'6 5.8
2014-Nov-14 19:33N 37°28' E 025°20'0 0.0
2014-Nov-14 18:33N 37°28' E 025°20'0 0.0
2014-Nov-14 17:33N 37°28' E 025°20'0 0.0
2014-Nov-14 16:33N 37°28' E 025°20'7 6.5
2014-Nov-14 15:33N 37°27' E 025°11'9 9.1
2014-Nov-14 14:33N 37°26' E 024°60'3 1.4
2014-Nov-14 12:32N 37°26' E 024°56'0 0.0
2014-Nov-14 11:27N 37°26' E 024°56'0 0.0
2014-Nov-14 10:28N 37°26' E 024°56'0 0.0
2014-Nov-14 09:31N 37°26' E 024°56'0 0.0
2014-Nov-14 08:29N 37°26' E 024°56'0 0.0
2014-Nov-14 07:32N 37°26' E 024°56'0 0.0
2014-Nov-14 06:32N 37°26' E 024°56'4 4.0
2014-Nov-14 05:33N 37°27' E 025°01'8 8.5
2014-Nov-14 04:33N 37°29' E 025°11'9 8.6
2014-Nov-14 03:33N 37°32' E 025°22'9 8.8
2014-Nov-14 02:33N 37°35' E 025°32'9 9.0
2014-Nov-14 01:33N 37°38' E 025°43'8 8.4
2014-Nov-14 00:33N 37°40' E 025°53'10 9.0
2014-Nov-13 23:28N 37°42' E 026°05'18 9.0
2014-Nov-13 21:27N 37°46' E 026°27'  

Dump ship's entire track history